Airfield :
LOGIN :

Register | Disclaimer

   EN    FR    IT 

 










Legend :    VFR   Marginal VFR   IFR   Intensive IFR   Very Intensive IFR
Visi :
Ceiling :
>= 8 km
>= 3000ft
5 to 8 km
1000 to 3000 ft
1500m to 5 km
500 to 1000 ft
800 to 1500m
200 to 500 ft
< 800m
< 200 ft
Symbols :   Thunderstorms  Fog  Heavy snow  Heavy precipitations  Wind > 20 kt
SIGMETs :     Misc.  Thunderstorms  Icing  Turbulence  Mountain Waves  Volcanic Ashes






- Airport Elevation : 856 ft
- IATA code : VGO


LEVX - Vigo Peinador

CURRENT METAR :
  • 311600Z 27010KT 240V300 CAVOK 21/16 Q1010 NOSIG

EXPIRED METARs :
  • 311530Z 27011KT 250V320 CAVOK 21/16 Q1010 NOSIG
  • 311500Z 26013KT CAVOK 21/16 Q1010 NOSIG
  • 311430Z 26012KT 230V300 CAVOK 21/16 Q1010 NOSIG
  • 311400Z 26010KT 230V290 CAVOK 23/16 Q1010 NOSIG
  • 311330Z VRB04KT CAVOK 24/17 Q1010 NOSIG

TAF TAF LEVX
Valid from the 31 at 12:00 until the 01 at 12:00 UTC


311100Z 3112/0112 28009KT 9999 FEW040 TX25/3114Z TN14/0105Z
TEMPO 3112/3121 SCT030TCU
PROB30
TEMPO 3112/3124 3000 TS SHRA SCT030TCU SCT040CB
TEMPO 3121/0112 3000 -RADZ BR BKN002 BKN005
PROB40
TEMPO 3121/0110 0800 BCFG VV001
PROB40
TEMPO 3121/0110 0350 FG VV001



MET'MAP, your aeronautical weather chart ! - Copyright ORBIFLY December 2007 - Disclaimer

ORBIFLY MET'MAP TEAM :

Programming & Development : Alexandra Zaïnal
Concept & original design : Baudouin d'Aumeries
Assistance for programming : Marc-Olivier Méhu
Technical & hardware support : Manuel Goepfert

Contact : metmap@orbifly.com




SOURCES & CREDITS :

   NOAA